Etusivu
METAR-TAF:

METAR-TAF

Lentoasemat :

Orio al Serion lentoasema

Bergamo, Italia

Leveyspiiri: 45-40N, Pituuspiiri: 009-42E, korkeus merenpinnasta: 238 m

Tämänhetkinen sää

Tämä raportti tehtiin 34 minuuttia sitten, kello 05.50 UTC
Tuuli 5 kn pohjoisesta
Lämpötila 2°C
Kosteus 87%
Ilmanpaine 1021 hPa
Näkyvyys: 7000 m

METAR: LIME 190550Z 36005KT 7000 NSC 02/00 Q1021 NOSIG

Aika: 07:24 (06:24 UTC)

Sääennuste

Tämä raportti tehtiin 1 tunti ja 24 minuuttia sitten, kello 05.00 UTC
Ennuste voimassa 19. päivästä klo 06 UTC - 20. päivään klo 06 UTC
Tuuli 5 kn eri suunnista
Näkyvyys: 7000 m

TAF: LIME 190500Z 1906/2006 VRB05KT 7000 NSC

Säähavainnot ja -ennusteet yli 4000 lentoasemalta (METAR- ja TAF-raportit).

Käytössä olevat sääasemat on merkitty karttaan keltaisilla ja punaisilla pisteillä.

Aseta hiiri pisteen päälle nähdäksesi sääaseman nimen.

Klikkaa sitten nähdäksesi säähavainnot ja -ennusteet.

Kartan vaihtaminen: klikkaa mustalla rastilla varustettuja vihreitä pisteitä, niin voit zoomata sisään; viivalla varustettua vihreää pistettä, niin voit zoomata ulos tai vihreitä nuolia, niin pääset viereisille kartoille.


METAR-TAF: